Time;durP1;ratioP1;P1;durP2;ratioP2;P2;SDS_P1;SDS_P2;PMS_P1;PMS_P2;Temp;Humidity;BMP_temperature;BMP_pressure;BME280_temperature;BME280_humidity;BME280_pressure;Samples;Min_cycle;Max_cycle;Signal;HPM_P1;HPM_P2
2021/11/12 00:14:04;;;;;;;120.90;58.10;;;;;;;;;;5031157;28;20037;-73
2021/11/12 00:16:30;;;;;;;115.18;57.08;;;;;;;;;;5031454;28;20052;-73
2021/11/12 00:18:57;;;;;;;120.13;58.80;;;;;;;;;;5043041;28;20128;-73
2021/11/12 00:21:24;;;;;;;126.75;58.85;;;;;;;;;;5058791;28;20369;-73
2021/11/12 00:23:51;;;;;;;127.35;60.75;;;;;;;;;;5036763;28;20450;-73
2021/11/12 00:26:17;;;;;;;113.15;57.67;;;;;;;;;;5049052;28;20130;-73
2021/11/12 00:28:52;;;;;;;119.07;57.80;;;;;;;;;;5068446;28;20053;-73
2021/11/12 00:31:28;;;;;;;130.02;60.30;;;;;;;;;;5028236;28;20393;-73
2021/11/12 00:34:18;;;;;;;119.72;58.70;;;;;;;;;;5033721;28;20049;-73
2021/11/12 00:36:56;;;;;;;124.03;58.22;;;;;;;;;;5035344;28;20132;-73
2021/11/12 00:42:03;;;;;;;109.05;56.20;;;;;;;;;;5045335;28;20154;-73
2021/11/12 00:47:03;;;;;;;110.75;56.25;;;;;;;;;;5038949;28;20426;-73
2021/11/12 00:49:33;;;;;;;;;;;;;;;;;;5071337;28;20602;-73
2021/11/12 00:52:03;;;;;;;114.05;53.78;;;;;;;;;;5046814;28;20016;-73
2021/11/12 00:54:29;;;;;;;117.03;56.63;;;;;;;;;;5039081;28;20056;-73
2021/11/12 00:56:56;;;;;;;119.18;56.15;;;;;;;;;;5053968;28;20056;-73
2021/11/12 00:59:22;;;;;;;111.80;55.30;;;;;;;;;;5040376;28;20037;-73
2021/11/12 01:01:49;;;;;;;104.30;54.67;;;;;;;;;;5043678;28;20102;-73
2021/11/12 01:04:17;;;;;;;108.93;55.53;;;;;;;;;;5042639;28;20072;-73
2021/11/12 01:06:44;;;;;;;111.28;55.88;;;;;;;;;;5047827;28;20098;-73
2021/11/12 01:09:11;;;;;;;111.47;53.70;;;;;;;;;;5035226;28;20516;-73
2021/11/12 01:11:39;;;;;;;118.22;56.20;;;;;;;;;;5038591;28;20386;-73
2021/11/12 01:14:05;;;;;;;106.20;54.50;;;;;;;;;;5054790;28;20106;-73
2021/11/12 01:16:32;;;;;;;114.38;56.97;;;;;;;;;;5055784;28;20508;-73
2021/11/12 01:18:58;;;;;;;107.63;56.08;;;;;;;;;;5043883;28;20041;-73
2021/11/12 01:21:24;;;;;;;115.25;55.85;;;;;;;;;;5040244;28;20374;-73
2021/11/12 01:23:52;;;;;;;109.63;54.45;;;;;;;;;;5039809;28;20044;-73
2021/11/12 01:26:19;;;;;;;111.22;55.55;;;;;;;;;;5037920;28;20045;-73
2021/11/12 01:28:45;;;;;;;100.70;53.58;;;;;;;;;;5038927;28;20492;-73
2021/11/12 01:31:12;;;;;;;101.57;52.05;;;;;;;;;;5041453;28;20128;-73
2021/11/12 01:33:38;;;;;;;108.97;52.70;;;;;;;;;;5062334;28;20187;-73
2021/11/12 01:36:28;;;;;;;101.05;53.15;;;;;;;;;;5048260;28;20089;-73
2021/11/12 01:38:58;;;;;;;100.90;52.83;;;;;;;;;;5048632;28;20061;-73
2021/11/12 01:41:25;;;;;;;116.00;53.85;;;;;;;;;;5071141;28;20496;-73
2021/11/12 01:43:54;;;;;;;100.65;53.45;;;;;;;;;;5039362;28;20051;-73
2021/11/12 01:46:32;;;;;;;105.38;52.65;;;;;;;;;;5043543;28;20041;-73
2021/11/12 01:51:49;;;;;;;98.80;53.00;;;;;;;;;;5045540;28;20045;-73
2021/11/12 01:56:46;;;;;;;91.40;51.30;;;;;;;;;;5036167;28;20134;-73
2021/11/12 01:59:15;;;;;;;89.38;51.28;;;;;;;;;;5046164;28;20061;-73
2021/11/12 02:01:48;;;;;;;91.82;52.50;;;;;;;;;;5072286;28;20045;-73
2021/11/12 02:04:16;;;;;;;92.47;51.70;;;;;;;;;;5038270;28;20080;-73
2021/11/12 02:06:42;;;;;;;92.95;50.50;;;;;;;;;;5054803;28;20130;-73
2021/11/12 02:09:19;;;;;;;103.60;51.33;;;;;;;;;;5047059;28;20048;-73
2021/11/12 02:11:46;;;;;;;98.50;51.80;;;;;;;;;;5047161;28;20049;-73
2021/11/12 02:14:14;;;;;;;99.00;52.08;;;;;;;;;;5041317;28;20048;-73
2021/11/12 02:16:47;;;;;;;97.32;51.63;;;;;;;;;;5044943;28;20114;-73
2021/11/12 02:19:14;;;;;;;89.97;52.20;;;;;;;;;;5062361;28;20428;-73
2021/11/12 02:21:51;;;;;;;97.90;52.78;;;;;;;;;;5046642;28;20132;-73
2021/11/12 02:24:18;;;;;;;91.00;51.45;;;;;;;;;;5059633;28;20053;-73
2021/11/12 02:26:47;;;;;;;97.13;51.72;;;;;;;;;;5041842;28;20049;-73
2021/11/12 02:29:16;;;;;;;91.78;50.78;;;;;;;;;;5056009;28;20133;-73
2021/11/12 02:31:42;;;;;;;93.72;51.58;;;;;;;;;;5038436;28;20049;-73
2021/11/12 02:34:11;;;;;;;93.38;51.30;;;;;;;;;;5030373;28;20076;-73
2021/11/12 02:36:38;;;;;;;86.20;51.78;;;;;;;;;;5040970;28;20111;-73
2021/11/12 02:39:06;;;;;;;90.07;50.10;;;;;;;;;;5036385;28;20048;-73
2021/11/12 02:41:32;;;;;;;85.97;49.65;;;;;;;;;;5036425;28;20052;-73
2021/11/12 02:44:00;;;;;;;82.60;49.42;;;;;;;;;;5063768;28;20057;-73
2021/11/12 02:46:27;;;;;;;88.78;50.22;;;;;;;;;;5031147;28;21183;-73
2021/11/12 02:48:54;;;;;;;84.15;49.53;;;;;;;;;;5055343;28;20041;-73
2021/11/12 02:51:24;;;;;;;85.75;50.63;;;;;;;;;;5039093;28;20056;-73
2021/11/12 02:53:50;;;;;;;90.10;51.33;;;;;;;;;;5041740;28;20040;-73
2021/11/12 02:56:27;;;;;;;84.72;52.05;;;;;;;;;;5040082;28;20056;-73
2021/11/12 02:58:54;;;;;;;90.57;51.67;;;;;;;;;;5038319;28;20064;-73
2021/11/12 03:01:21;;;;;;;85.93;49.95;;;;;;;;;;5034706;28;20155;-73
2021/11/12 03:03:48;;;;;;;80.07;47.95;;;;;;;;;;5034763;28;20042;-74
2021/11/12 03:06:14;;;;;;;89.22;50.15;;;;;;;;;;5035261;28;20075;-73
2021/11/12 03:08:40;;;;;;;77.68;48.35;;;;;;;;;;5039536;28;20034;-73
2021/11/12 03:11:06;;;;;;;85.40;50.53;;;;;;;;;;5043321;28;20057;-73
2021/11/12 03:13:34;;;;;;;81.30;48.15;;;;;;;;;;5033530;28;20076;-73
2021/11/12 03:16:00;;;;;;;85.63;49.78;;;;;;;;;;5037136;28;20140;-73
2021/11/12 03:18:27;;;;;;;85.28;48.92;;;;;;;;;;5039945;28;20038;-73
2021/11/12 03:20:54;;;;;;;82.05;49.55;;;;;;;;;;5064665;28;20041;-73
2021/11/12 03:23:24;;;;;;;78.55;47.83;;;;;;;;;;5037690;28;20052;-73
2021/11/12 03:26:06;;;;;;;80.63;51.08;;;;;;;;;;5036377;28;20045;-73
2021/11/12 04:01:48;;;;;;;79.05;47.95;;;;;;;;;;5036180;28;20037;-73
2021/11/12 04:04:32;;;;;;;71.90;45.28;;;;;;;;;;5034675;28;20064;-73
2021/11/12 04:07:08;;;;;;;73.05;45.08;;;;;;;;;;5034901;28;20235;-73
2021/11/12 04:20:40;;;;;;;75.35;46.47;;;;;;;;;;5045408;28;20147;-73
2021/11/12 05:09:54;;;;;;;62.15;38.85;;;;;;;;;;5042877;28;20049;-73
2021/11/12 05:33:35;;;;;;;62.20;37.05;;;;;;;;;;5069678;28;20080;-73
2021/11/12 05:34:52;;;;;;;66.30;39.47;;;;;;;;;;5046680;28;20087;-73
2021/11/12 05:43:36;;;;;;;63.72;39.42;;;;;;;;;;5038335;28;20069;-73
2021/11/12 05:46:05;;;;;;;62.10;39.83;;;;;;;;;;5040884;28;20045;-73
2021/11/12 05:56:30;;;;;;;64.85;41.47;;;;;;;;;;5069933;28;20049;-73
2021/11/12 05:58:56;;;;;;;68.47;39.83;;;;;;;;;;5037225;28;20121;-73
2021/11/12 06:01:22;;;;;;;66.13;41.20;;;;;;;;;;5036045;28;20049;-73
2021/11/12 06:03:48;;;;;;;66.40;42.33;;;;;;;;;;5037289;28;20041;-74
2021/11/12 06:06:15;;;;;;;66.45;38.88;;;;;;;;;;5038261;28;20081;-73
2021/11/12 06:08:42;;;;;;;64.20;39.20;;;;;;;;;;5044737;28;20057;-73
2021/11/12 06:11:08;;;;;;;69.53;39.40;;;;;;;;;;5043338;28;20769;-73
2021/11/12 06:13:34;;;;;;;62.92;38.83;;;;;;;;;;5037879;28;20123;-74
2021/11/12 06:16:01;;;;;;;65.18;39.38;;;;;;;;;;5063270;28;20061;-73
2021/11/12 06:18:27;;;;;;;64.78;39.35;;;;;;;;;;5034947;28;20117;-73
2021/11/12 06:20:54;;;;;;;64.10;38.83;;;;;;;;;;5036277;28;20033;-73
2021/11/12 06:23:20;;;;;;;65.68;40.53;;;;;;;;;;5051656;28;20045;-74
2021/11/12 06:25:46;;;;;;;67.53;40.63;;;;;;;;;;5038368;28;20350;-73
2021/11/12 06:28:12;;;;;;;68.97;41.53;;;;;;;;;;5056102;28;20051;-74
2021/11/12 06:30:38;;;;;;;67.57;41.30;;;;;;;;;;5036622;28;20041;-73
2021/11/12 06:33:04;;;;;;;64.03;40.10;;;;;;;;;;5040572;28;20045;-74
2021/11/12 06:35:31;;;;;;;71.15;42.30;;;;;;;;;;5038012;28;20231;-75
2021/11/12 06:37:57;;;;;;;65.18;40.03;;;;;;;;;;5041427;28;20045;-74
2021/11/12 06:40:23;;;;;;;74.60;44.17;;;;;;;;;;5036109;28;20045;-74
2021/11/12 06:43:01;;;;;;;63.17;41.00;;;;;;;;;;5041476;28;20463;-74
2021/11/12 06:50:58;;;;;;;75.22;43.60;;;;;;;;;;5036602;28;20398;-75
2021/11/12 06:53:24;;;;;;;73.35;44.53;;;;;;;;;;5035435;28;20056;-73
2021/11/12 06:55:53;;;;;;;76.68;45.38;;;;;;;;;;5041660;28;20168;-74
2021/11/12 06:58:19;;;;;;;62.97;40.50;;;;;;;;;;5044467;28;20161;-75
2021/11/12 07:00:47;;;;;;;74.60;43.65;;;;;;;;;;5036275;28;20053;-74
2021/11/12 07:03:13;;;;;;;73.68;45.03;;;;;;;;;;5040790;28;20040;-75
2021/11/12 07:05:39;;;;;;;77.85;46.08;;;;;;;;;;5038274;28;20053;-80
2021/11/12 07:08:05;;;;;;;73.40;43.97;;;;;;;;;;5029753;28;20299;-82
2021/11/12 07:10:31;;;;;;;73.55;44.33;;;;;;;;;;5053563;28;20342;-71
2021/11/12 07:12:58;;;;;;;72.55;43.65;;;;;;;;;;5042618;28;20045;-76
2021/11/12 07:15:24;;;;;;;74.10;43.92;;;;;;;;;;5043027;28;20041;-76
2021/11/12 07:17:50;;;;;;;72.90;43.58;;;;;;;;;;5043749;28;20041;-76
2021/11/12 07:20:17;;;;;;;68.05;41.97;;;;;;;;;;5045402;28;20045;-75
2021/11/12 07:22:44;;;;;;;70.18;41.90;;;;;;;;;;5045649;28;20040;-76
2021/11/12 07:25:10;;;;;;;80.00;44.42;;;;;;;;;;5046005;28;20048;-76
2021/11/12 07:27:37;;;;;;;69.10;41.33;;;;;;;;;;5045102;28;20051;-76
2021/11/12 07:30:06;;;;;;;68.38;42.42;;;;;;;;;;5041821;28;20068;-76
2021/11/12 07:32:32;;;;;;;66.70;42.30;;;;;;;;;;5037743;28;20445;-71
2021/11/12 07:34:59;;;;;;;67.03;41.30;;;;;;;;;;5035738;28;20117;-78
2021/11/12 07:37:28;;;;;;;63.65;39.10;;;;;;;;;;5044116;28;20033;-75
2021/11/12 07:39:58;;;;;;;60.08;40.58;;;;;;;;;;5043006;28;20150;-75
2021/11/12 07:42:30;;;;;;;63.85;39.40;;;;;;;;;;5036831;28;20426;-74
2021/11/12 07:45:07;;;;;;;56.60;34.13;;;;;;;;;;5057128;28;20044;-74
2021/11/12 07:47:34;;;;;;;60.72;36.92;;;;;;;;;;5049409;28;20116;-74
2021/11/12 07:50:01;;;;;;;58.25;37.95;;;;;;;;;;5053905;28;20057;-74
2021/11/12 07:52:30;;;;;;;54.10;35.33;;;;;;;;;;5054711;28;20033;-74
2021/11/12 07:54:57;;;;;;;55.75;36.20;;;;;;;;;;5052731;28;20154;-74
2021/11/12 07:57:23;;;;;;;56.42;35.80;;;;;;;;;;5053559;28;20041;-74
2021/11/12 07:59:50;;;;;;;56.05;36.33;;;;;;;;;;5052870;28;20123;-74
2021/11/12 08:02:17;;;;;;;52.58;34.55;;;;;;;;;;5053439;28;20124;-74
2021/11/12 08:04:44;;;;;;;57.33;35.45;;;;;;;;;;5053831;28;20481;-74
2021/11/12 08:07:11;;;;;;;54.33;35.67;;;;;;;;;;5036521;28;20096;-74
2021/11/12 08:09:46;;;;;;;55.08;35.47;;;;;;;;;;5052586;28;20045;-74
2021/11/12 08:12:18;;;;;;;53.80;33.65;;;;;;;;;;5049959;28;20053;-74
2021/11/12 08:17:24;;;;;;;52.95;34.00;;;;;;;;;;5048816;28;20128;-75
2021/11/12 08:19:57;;;;;;;48.63;31.73;;;;;;;;;;5052497;28;20083;-74
2021/11/12 08:22:31;;;;;;;50.85;32.10;;;;;;;;;;5051767;28;20049;-74
2021/11/12 08:27:49;;;;;;;50.70;31.83;;;;;;;;;;5052753;28;20120;-74
2021/11/12 08:38:10;;;;;;;48.85;29.65;;;;;;;;;;5051605;28;20049;-74
2021/11/12 08:40:48;;;;;;;41.00;27.90;;;;;;;;;;5035262;28;20128;-74
2021/11/12 08:43:19;;;;;;;37.75;27.77;;;;;;;;;;5049916;28;20076;-74
2021/11/12 08:48:22;;;;;;;38.78;27.75;;;;;;;;;;5051311;28;20487;-70
2021/11/12 08:50:49;;;;;;;45.83;27.95;;;;;;;;;;5055527;28;20487;-70
2021/11/12 08:53:16;;;;;;;41.10;26.35;;;;;;;;;;5046839;28;20133;-70
2021/11/12 08:55:44;;;;;;;37.67;26.17;;;;;;;;;;5043183;28;20483;-70
2021/11/12 08:58:11;;;;;;;47.58;27.90;;;;;;;;;;5042474;28;20041;-69
2021/11/12 09:00:39;;;;;;;36.67;25.65;;;;;;;;;;5043325;28;20048;-70
2021/11/12 09:03:05;;;;;;;35.92;24.70;;;;;;;;;;5041530;28;20182;-70
2021/11/12 09:05:31;;;;;;;37.92;25.48;;;;;;;;;;5057855;28;20437;-70
2021/11/12 09:07:57;;;;;;;35.83;26.60;;;;;;;;;;5072026;28;20041;-71
2021/11/12 09:10:25;;;;;;;39.10;25.05;;;;;;;;;;5051169;28;20476;-70
2021/11/12 09:13:06;;;;;;;35.58;24.80;;;;;;;;;;5045614;28;20151;-70
2021/11/12 09:15:33;;;;;;;37.33;24.42;;;;;;;;;;5033495;28;20053;-70
2021/11/12 09:18:03;;;;;;;42.30;26.77;;;;;;;;;;5045934;28;20085;-70
2021/11/12 09:20:29;;;;;;;39.60;27.55;;;;;;;;;;5033729;28;20409;-70
2021/11/12 09:22:58;;;;;;;34.38;24.55;;;;;;;;;;5033795;28;20120;-70
2021/11/12 09:25:25;;;;;;;31.48;23.08;;;;;;;;;;5044317;28;20048;-70
2021/11/12 09:27:52;;;;;;;37.90;23.80;;;;;;;;;;5073379;28;20041;-70
2021/11/12 09:30:21;;;;;;;33.60;22.80;;;;;;;;;;5040067;28;20041;-70
2021/11/12 09:32:48;;;;;;;33.67;23.90;;;;;;;;;;5038682;28;20051;-70
2021/11/12 09:35:14;;;;;;;33.45;21.65;;;;;;;;;;5028907;28;20539;-70
2021/11/12 09:37:40;;;;;;;33.95;20.88;;;;;;;;;;5032686;28;20042;-70
2021/11/12 09:40:07;;;;;;;35.10;22.83;;;;;;;;;;5034872;28;20037;-71
2021/11/12 09:42:36;;;;;;;31.10;21.38;;;;;;;;;;5076179;28;20117;-72
2021/11/12 09:45:05;;;;;;;32.60;21.55;;;;;;;;;;5034649;28;20044;-71
2021/11/12 09:47:31;;;;;;;28.58;21.63;;;;;;;;;;5040702;28;20052;-71
2021/11/12 09:49:58;;;;;;;29.48;20.65;;;;;;;;;;5044057;28;20087;-71
2021/11/12 09:52:25;;;;;;;34.08;22.75;;;;;;;;;;5039650;28;20040;-71
2021/11/12 09:54:52;;;;;;;30.15;21.42;;;;;;;;;;5068407;28;20076;-70
2021/11/12 09:57:19;;;;;;;31.90;21.05;;;;;;;;;;5067084;28;20128;-70
2021/11/12 09:59:47;;;;;;;30.35;21.67;;;;;;;;;;5070557;28;20041;-71
2021/11/12 10:02:14;;;;;;;31.80;21.90;;;;;;;;;;5034120;28;20053;-71
2021/11/12 10:04:40;;;;;;;30.20;20.77;;;;;;;;;;5038776;28;20423;-71
2021/11/12 10:07:12;;;;;;;31.42;21.40;;;;;;;;;;5038399;28;20045;-71
2021/11/12 10:09:38;;;;;;;33.08;19.92;;;;;;;;;;5036168;28;20445;-71
2021/11/12 10:12:06;;;;;;;32.50;21.60;;;;;;;;;;5036299;28;20068;-71
2021/11/12 10:14:39;;;;;;;33.65;22.83;;;;;;;;;;5035576;28;20110;-71
2021/11/12 10:17:07;;;;;;;31.30;22.55;;;;;;;;;;5037918;28;20041;-70
2021/11/12 10:19:41;;;;;;;33.05;23.33;;;;;;;;;;5042556;28;20045;-71
2021/11/12 10:22:07;;;;;;;;;;;;;;;;;;5056981;28;20059;-71
2021/11/12 10:24:34;;;;;;;35.08;24.15;;;;;;;;;;5059181;28;20300;-70
2021/11/12 10:27:02;;;;;;;32.38;22.67;;;;;;;;;;5071309;28;20045;-71
2021/11/12 10:29:29;;;;;;;35.10;24.27;;;;;;;;;;5042547;28;20110;-71
2021/11/12 10:31:59;;;;;;;34.50;23.20;;;;;;;;;;5040088;28;20076;-71
2021/11/12 10:34:27;;;;;;;39.88;26.15;;;;;;;;;;5039900;28;20080;-71
2021/11/12 10:36:55;;;;;;;35.97;24.00;;;;;;;;;;5038661;28;20049;-71
2021/11/12 10:39:31;;;;;;;42.25;26.60;;;;;;;;;;5040676;28;20103;-71
2021/11/12 10:41:59;;;;;;;39.53;23.92;;;;;;;;;;5027308;28;20048;-70
2021/11/12 10:44:25;;;;;;;37.20;25.00;;;;;;;;;;5040392;28;20076;-72
2021/11/12 10:46:51;;;;;;;39.10;24.85;;;;;;;;;;5040885;28;20769;-71
2021/11/12 10:49:24;;;;;;;39.17;26.40;;;;;;;;;;5041302;28;20110;-71
2021/11/12 10:51:52;;;;;;;39.65;27.40;;;;;;;;;;5040263;28;20467;-71
2021/11/12 10:54:33;;;;;;;39.78;25.95;;;;;;;;;;5043068;28;20052;-71
2021/11/12 10:56:59;;;;;;;41.05;26.63;;;;;;;;;;5038705;28;20432;-71
2021/11/12 10:59:25;;;;;;;35.75;25.30;;;;;;;;;;5067572;28;20034;-71
2021/11/12 11:01:52;;;;;;;38.72;26.52;;;;;;;;;;5070366;28;20053;-71
2021/11/12 11:04:22;;;;;;;39.90;26.25;;;;;;;;;;5045681;28;20120;-71
2021/11/12 11:06:49;;;;;;;39.40;26.52;;;;;;;;;;5037718;28;20056;-71
2021/11/12 11:09:15;;;;;;;39.15;28.15;;;;;;;;;;5041643;28;20061;-71
2021/11/12 11:11:42;;;;;;;39.58;26.08;;;;;;;;;;5035814;28;20388;-71
2021/11/12 11:14:27;;;;;;;38.03;27.95;;;;;;;;;;5071053;28;20057;-71
2021/11/12 11:16:54;;;;;;;40.58;27.70;;;;;;;;;;5039661;28;20036;-71
2021/11/12 11:19:34;;;;;;;36.70;25.70;;;;;;;;;;5036974;28;20107;-71
2021/11/12 11:22:03;;;;;;;40.03;27.63;;;;;;;;;;5040627;28;20469;-74
2021/11/12 11:24:33;;;;;;;39.38;25.55;;;;;;;;;;5030132;28;20053;-71
2021/11/12 11:26:59;;;;;;;41.75;25.00;;;;;;;;;;5039841;28;20060;-71
2021/11/12 11:29:26;;;;;;;35.15;23.88;;;;;;;;;;5029120;28;20511;-71
2021/11/12 11:31:54;;;;;;;39.97;23.48;;;;;;;;;;5034676;28;20420;-71
2021/11/12 11:34:20;;;;;;;37.75;21.17;;;;;;;;;;5042106;28;20053;-71
2021/11/12 11:36:48;;;;;;;39.20;23.67;;;;;;;;;;5069680;28;20453;-71
2021/11/12 11:39:15;;;;;;;31.98;21.63;;;;;;;;;;5040286;28;20083;-70
2021/11/12 11:41:43;;;;;;;34.72;22.08;;;;;;;;;;5047105;28;20053;-72
2021/11/12 11:44:10;;;;;;;38.13;22.70;;;;;;;;;;5038091;28;20037;-72
2021/11/12 11:46:41;;;;;;;34.42;22.75;;;;;;;;;;5074385;28;20515;-72
2021/11/12 11:49:10;;;;;;;36.50;22.95;;;;;;;;;;5041253;28;20053;-72
2021/11/12 11:51:40;;;;;;;36.50;23.30;;;;;;;;;;5048378;28;20147;-72
2021/11/12 11:54:07;;;;;;;36.20;22.77;;;;;;;;;;5045047;28;20464;-72
2021/11/12 11:56:35;;;;;;;33.17;22.23;;;;;;;;;;5044100;28;20053;-72
2021/11/12 11:59:03;;;;;;;37.38;22.30;;;;;;;;;;5047802;28;20084;-72
2021/11/12 12:01:30;;;;;;;32.28;22.80;;;;;;;;;;5045800;28;20189;-72
2021/11/12 12:04:15;;;;;;;34.88;23.25;;;;;;;;;;5046659;28;20131;-73
2021/11/12 12:07:14;;;;;;;29.17;20.63;;;;;;;;;;5042659;28;20057;-78
2021/11/12 12:09:42;;;;;;;34.67;21.83;;;;;;;;;;5068337;28;20049;-71
2021/11/12 12:12:08;;;;;;;34.30;23.38;;;;;;;;;;5042631;28;20505;-72
2021/11/12 12:14:36;;;;;;;37.30;23.42;;;;;;;;;;5044176;28;20052;-72
2021/11/12 12:17:10;;;;;;;33.63;23.13;;;;;;;;;;5064795;28;20064;-71
2021/11/12 12:19:43;;;;;;;36.35;23.05;;;;;;;;;;5036318;28;20093;-71
2021/11/12 12:30:51;;;;;;;34.47;22.60;;;;;;;;;;5047086;28;20307;-72
2021/11/12 12:31:04;;;;;;;31.90;22.67;;;;;;;;;;5035327;28;20048;-71
2021/11/12 12:36:47;;;;;;;35.80;24.45;;;;;;;;;;5056319;28;20128;-72
2021/11/12 12:40:06;;;;;;;34.53;22.35;;;;;;;;;;5039785;28;20051;-72
2021/11/12 13:24:36;;;;;;;43.72;27.85;;;;;;;;;;5044839;28;20045;-71
2021/11/12 13:27:04;;;;;;;38.22;24.60;;;;;;;;;;5041486;28;20098;-71
2021/11/12 13:29:30;;;;;;;41.17;25.85;;;;;;;;;;5044821;28;20045;-70
2021/11/12 13:32:02;;;;;;;44.25;29.23;;;;;;;;;;5049245;28;20029;-70
2021/11/12 13:34:29;;;;;;;43.55;26.90;;;;;;;;;;5022127;28;20087;-71
2021/11/12 13:36:55;;;;;;;42.42;28.42;;;;;;;;;;5073040;28;20048;-71
2021/11/12 13:39:23;;;;;;;42.00;28.13;;;;;;;;;;5042300;28;20500;-71
2021/11/12 13:41:51;;;;;;;45.55;29.77;;;;;;;;;;5038034;28;20068;-71
2021/11/12 13:44:21;;;;;;;43.67;27.92;;;;;;;;;;5041011;28;20470;-71
2021/11/12 13:46:55;;;;;;;44.92;30.83;;;;;;;;;;5038236;28;20037;-71
2021/11/12 13:49:28;;;;;;;44.10;30.58;;;;;;;;;;5039004;28;20429;-68
2021/11/12 13:51:59;;;;;;;45.38;31.48;;;;;;;;;;5041109;28;20476;-70
2021/11/12 13:54:25;;;;;;;46.70;29.30;;;;;;;;;;5040366;28;20406;-71
2021/11/12 13:56:51;;;;;;;50.28;31.33;;;;;;;;;;5036825;28;20045;-70
2021/11/12 13:59:18;;;;;;;53.38;32.88;;;;;;;;;;5036474;28;20045;-71
2021/11/12 14:01:44;;;;;;;49.63;31.45;;;;;;;;;;5042353;28;20044;-70
2021/11/12 14:04:22;;;;;;;48.83;33.53;;;;;;;;;;5039601;28;20160;-70
2021/11/12 14:06:49;;;;;;;50.13;33.72;;;;;;;;;;5050411;28;20091;-70
2021/11/12 14:09:19;;;;;;;51.88;32.92;;;;;;;;;;5037899;28;20048;-70
2021/11/12 14:11:46;;;;;;;49.05;33.85;;;;;;;;;;5040968;28;20041;-70
2021/11/12 14:14:19;;;;;;;52.78;32.83;;;;;;;;;;5048992;28;20488;-70
2021/11/12 14:16:52;;;;;;;48.13;32.80;;;;;;;;;;5076447;28;20041;-71
2021/11/12 14:19:40;;;;;;;49.58;32.42;;;;;;;;;;5043401;28;20653;-65
2021/11/12 14:22:10;;;;;;;49.67;31.88;;;;;;;;;;5045999;28;20135;-65
2021/11/12 14:24:48;;;;;;;54.67;35.60;;;;;;;;;;5045002;28;20465;-65
2021/11/12 14:27:31;;;;;;;53.83;34.50;;;;;;;;;;5041670;28;20076;-73
2021/11/12 14:30:13;;;;;;;53.22;33.58;;;;;;;;;;5069347;28;20049;-65
2021/11/12 14:35:25;;;;;;;51.60;34.25;;;;;;;;;;5041234;28;20049;-65
2021/11/12 14:38:13;;;;;;;52.38;33.83;;;;;;;;;;5046657;28;20082;-66
2021/11/12 14:46:40;;;;;;;50.25;33.22;;;;;;;;;;5043104;28;20532;-66
2021/11/12 14:49:18;;;;;;;56.22;35.13;;;;;;;;;;5041932;28;20050;-66
2021/11/12 14:54:27;;;;;;;53.70;34.88;;;;;;;;;;5040096;28;20057;-66
2021/11/12 14:56:53;;;;;;;56.20;34.47;;;;;;;;;;5040248;28;20038;-70
2021/11/12 14:59:19;;;;;;;58.70;35.38;;;;;;;;;;5040879;28;20366;-66
2021/11/12 15:01:46;;;;;;;54.67;35.38;;;;;;;;;;5044529;28;20045;-66
2021/11/12 15:04:12;;;;;;;60.35;35.92;;;;;;;;;;5034468;28;20053;-65
2021/11/12 15:06:38;;;;;;;55.85;36.33;;;;;;;;;;5037582;28;20116;-65
2021/11/12 15:09:29;;;;;;;57.78;35.47;;;;;;;;;;5041075;28;20045;-66
2021/11/12 15:11:55;;;;;;;59.20;35.40;;;;;;;;;;5041888;28;20098;-66
2021/11/12 15:14:26;;;;;;;63.20;37.45;;;;;;;;;;5045373;28;20580;-66
2021/11/12 15:16:52;;;;;;;59.63;37.05;;;;;;;;;;5037732;28;20049;-67
2021/11/12 15:19:20;;;;;;;59.90;36.63;;;;;;;;;;5035614;28;20531;-66
2021/11/12 15:29:27;;;;;;;63.58;38.50;;;;;;;;;;5043209;28;20037;-66
2021/11/12 15:34:35;;;;;;;56.28;36.88;;;;;;;;;;5039500;28;20096;-66
2021/11/12 15:37:07;;;;;;;62.17;36.92;;;;;;;;;;5047036;28;20412;-66
2021/11/12 15:40:00;;;;;;;62.75;35.53;;;;;;;;;;5041420;28;20052;-66
2021/11/12 15:44:51;;;;;;;61.35;39.42;;;;;;;;;;5040508;28;20096;-66
2021/11/12 15:49:44;;;;;;;63.28;38.00;;;;;;;;;;5042227;28;20550;-67
2021/11/12 15:52:18;;;;;;;59.72;36.13;;;;;;;;;;5041760;28;20040;-66
2021/11/12 15:54:54;;;;;;;58.25;37.80;;;;;;;;;;5039210;28;20063;-65
2021/11/12 15:57:59;;;;;;;59.47;39.65;;;;;;;;;;5054608;28;20432;-66
2021/11/12 16:00:24;;;;;;;67.85;41.42;;;;;;;;;;5042691;28;20037;-66
2021/11/12 16:03:33;;;;;;;67.03;39.05;;;;;;;;;;5042479;28;20385;-65
2021/11/12 16:08:52;;;;;;;66.88;41.10;;;;;;;;;;5035863;28;20433;-65
2021/11/12 16:11:26;;;;;;;63.70;40.25;;;;;;;;;;5042695;28;20049;-65
2021/11/12 16:14:12;;;;;;;67.72;39.70;;;;;;;;;;5042194;28;20049;-66
2021/11/12 16:21:56;;;;;;;63.85;38.25;;;;;;;;;;5041073;28;20076;-65
2021/11/12 16:24:39;;;;;;;69.97;38.85;;;;;;;;;;5039088;28;20121;-65
2021/11/12 16:27:07;;;;;;;64.70;39.20;;;;;;;;;;5041273;28;20111;-66
2021/11/12 16:29:38;;;;;;;64.28;38.20;;;;;;;;;;5038906;28;20075;-66
2021/11/12 16:32:07;;;;;;;64.78;39.60;;;;;;;;;;5040364;28;20033;-66
2021/11/12 16:34:43;;;;;;;62.80;39.13;;;;;;;;;;5074882;28;20132;-66
2021/11/12 16:37:10;;;;;;;67.18;40.00;;;;;;;;;;5039803;28;20481;-66
2021/11/12 16:39:43;;;;;;;68.00;39.83;;;;;;;;;;5043500;28;20402;-66
2021/11/12 16:45:09;;;;;;;65.53;38.97;;;;;;;;;;5040337;28;20045;-66
2021/11/12 16:47:48;;;;;;;62.50;38.67;;;;;;;;;;5054336;28;20099;-66
2021/11/12 16:50:24;;;;;;;65.03;39.28;;;;;;;;;;5039802;28;20494;-66
2021/11/12 16:53:03;;;;;;;57.40;37.03;;;;;;;;;;5076115;28;20127;-66
2021/11/12 17:01:26;;;;;;;62.55;38.50;;;;;;;;;;5070454;28;20061;-67
2021/11/12 17:03:58;;;;;;;62.85;39.15;;;;;;;;;;5038512;28;20064;-66
2021/11/12 17:11:47;;;;;;;57.83;37.10;;;;;;;;;;5039920;28;20041;-66
2021/11/12 17:22:59;;;;;;;63.22;41.00;;;;;;;;;;5036036;28;20053;-66
2021/11/12 17:44:56;;;;;;;57.88;37.08;;;;;;;;;;5045722;28;20048;-66
2021/11/12 17:47:24;;;;;;;57.75;38.63;;;;;;;;;;5048482;28;20037;-66
2021/11/12 17:50:00;;;;;;;58.45;37.40;;;;;;;;;;5049437;28;20041;-66
2021/11/12 18:03:17;;;;;;;58.17;36.20;;;;;;;;;;5042917;28;20070;-71
2021/11/12 18:06:03;;;;;;;64.43;37.72;;;;;;;;;;5069289;28;20053;-65
2021/11/12 18:13:47;;;;;;;60.17;36.33;;;;;;;;;;5040976;28;20159;-65
2021/11/12 18:16:48;;;;;;;60.53;36.25;;;;;;;;;;5057409;28;20052;-65
2021/11/12 18:22:07;;;;;;;69.68;42.20;;;;;;;;;;5040220;28;20135;-65
2021/11/12 21:48:17;;;;;;;124.80;54.80;;;;;;;;;;5090207;28;20123;-63
2021/11/12 21:50:43;;;;;;;109.00;55.15;;;;;;;;;;5081654;28;20043;-62
2021/11/12 21:53:09;;;;;;;109.03;51.05;;;;;;;;;;5085708;28;20076;-62
2021/11/12 21:55:36;;;;;;;113.00;52.28;;;;;;;;;;5104269;27;20053;-62
2021/11/12 21:58:02;;;;;;;101.07;51.95;;;;;;;;;;5087076;28;20041;-63
2021/11/12 22:00:29;;;;;;;110.05;50.95;;;;;;;;;;5082828;28;20115;-63
2021/11/12 22:02:55;;;;;;;103.28;51.33;;;;;;;;;;5090386;28;20362;-62
2021/11/12 22:05:22;;;;;;;101.65;48.50;;;;;;;;;;5090156;28;20071;-62
2021/11/12 22:07:49;;;;;;;97.97;48.28;;;;;;;;;;5096196;28;20042;-62
2021/11/12 22:10:15;;;;;;;102.30;49.47;;;;;;;;;;5090094;28;20044;-64
2021/11/12 22:12:41;;;;;;;101.00;47.88;;;;;;;;;;5087483;28;20093;-63
2021/11/12 22:15:08;;;;;;;107.15;50.20;;;;;;;;;;5069367;28;20436;-62
2021/11/12 22:17:34;;;;;;;101.72;50.00;;;;;;;;;;5092366;28;20036;-62
2021/11/12 22:20:02;;;;;;;97.00;47.78;;;;;;;;;;5090956;28;20044;-62
2021/11/12 22:22:28;;;;;;;111.32;48.88;;;;;;;;;;5087349;27;20097;-62
2021/11/12 22:24:54;;;;;;;119.43;49.72;;;;;;;;;;5091128;28;20087;-62
2021/11/12 22:27:20;;;;;;;98.35;47.63;;;;;;;;;;5086934;28;20071;-62
2021/11/12 22:29:46;;;;;;;91.63;48.80;;;;;;;;;;5084063;28;20067;-63
2021/11/12 22:32:12;;;;;;;101.93;47.63;;;;;;;;;;5087980;28;20047;-62
2021/11/12 22:34:39;;;;;;;104.38;48.58;;;;;;;;;;5088997;28;20044;-62
2021/11/12 22:37:05;;;;;;;104.60;48.85;;;;;;;;;;5091281;28;20563;-62
2021/11/12 22:39:31;;;;;;;93.93;47.90;;;;;;;;;;5091338;28;20032;-62
2021/11/12 22:41:57;;;;;;;95.68;47.13;;;;;;;;;;5090756;28;20335;-62
2021/11/12 22:44:24;;;;;;;99.40;47.22;;;;;;;;;;5089414;28;20044;-62
2021/11/12 22:46:50;;;;;;;94.45;49.00;;;;;;;;;;5087412;28;20522;-62
2021/11/12 22:49:16;;;;;;;95.00;47.13;;;;;;;;;;5089919;28;20492;-63
2021/11/12 22:51:42;;;;;;;104.93;48.72;;;;;;;;;;5084550;28;20080;-62
2021/11/12 22:54:09;;;;;;;104.65;49.35;;;;;;;;;;5086773;28;20040;-62
2021/11/12 22:56:35;;;;;;;99.50;49.67;;;;;;;;;;5091023;28;20047;-62
2021/11/12 22:59:01;;;;;;;122.40;52.58;;;;;;;;;;5090059;28;20101;-62
2021/11/12 23:01:29;;;;;;;106.97;51.03;;;;;;;;;;5090725;28;20040;-62
2021/11/12 23:03:55;;;;;;;117.22;52.05;;;;;;;;;;5083034;28;20044;-62
2021/11/12 23:06:22;;;;;;;114.65;51.75;;;;;;;;;;5088659;28;20128;-62
2021/11/12 23:08:49;;;;;;;123.10;53.65;;;;;;;;;;5090396;28;20055;-62
2021/11/12 23:11:16;;;;;;;133.55;58.10;;;;;;;;;;5089380;28;20048;-62